| time (UTC) | temp F | wind direction | speed MPH | gust MPH | rain 1hr in | rain 24hr in | rain mn in | humidity % | barometer mb |
| 20260507232744 | 42 | 180 | 1.0 | 3.0 | 0.00 | 0.00 | 0.00 | 35 | 1028.3 |
| 20260507225745 | 42 | 225 | 1.0 | 3.0 | 0.00 | 0.00 | 0.00 | 17 | 1028.5 |
| 20260507222742 | 43 | 225 | 2.0 | 5.0 | 0.00 | 0.00 | 0.00 | 10 | 1028.3 |
| 20260507215745 | 43 | 225 | 2.0 | 5.0 | 0.00 | 0.00 | 0.00 | 10 | 1028.1 |
| 20260507212744 | 44 | 225 | 2.0 | 6.0 | 0.00 | 0.00 | 0.00 | 10 | 1028.0 |
| 20260507202742 | 45 | 270 | 3.0 | 6.0 | 0.00 | 0.00 | 0.00 | 10 | 1028.0 |
| 20260507195745 | 46 | 270 | 3.0 | 3.0 | 0.00 | 0.00 | 0.00 | 10 | 1027.6 |
| 20260507192746 | 47 | 270 | 3.0 | 6.0 | 0.00 | 0.00 | 0.00 | 10 | 1027.5 |
| 20260507182744 | 53 | 270 | 3.0 | 6.0 | 0.00 | 0.00 | 0.00 | 10 | 1027.0 |
| 20260507175744 | 53 | 360 | 3.0 | 7.0 | 0.00 | 0.00 | 0.00 | 10 | 1027.0 |
| 20260507172745 | 53 | 270 | 3.0 | 9.0 | 0.00 | 0.00 | 0.00 | 10 | 1027.1 |
| 20260507162743 | 53 | 360 | 5.0 | 9.0 | 0.00 | 0.00 | 0.00 | 10 | 1027.1 |
| 20260507155744 | 53 | 360 | 3.0 | 9.0 | 0.00 | 0.00 | 0.00 | 10 | 1027.0 |
| 20260507152743 | 52 | 360 | 5.0 | 9.0 | 0.00 | 0.00 | 0.00 | 10 | 1027.0 |
| 20260507145742 | 52 | 360 | 6.0 | 9.0 | 0.00 | 0.00 | 0.00 | 10 | 1027.1 |
| 20260507142745 | 51 | 315 | 7.0 | 12.0 | 0.00 | 0.00 | 0.00 | 10 | 1027.1 |
| 20260507135745 | 51 | 360 | 9.0 | 12.0 | 0.00 | 0.00 | 0.00 | 10 | 1027.1 |
| 20260507132741 | 52 | 360 | 6.0 | 12.0 | 0.00 | 0.00 | 0.00 | 10 | 1027.3 |
| 20260507125747 | 52 | 360 | 8.0 | 11.0 | 0.00 | 0.00 | 0.00 | 10 | 1027.3 |
| 20260507122744 | 51 | 270 | 7.0 | 10.0 | 0.00 | 0.00 | 0.00 | 10 | 1027.3 |
| 20260507115743 | 51 | 360 | 6.0 | 12.0 | 0.00 | 0.00 | 0.00 | 10 | 1027.1 |
| 20260507112742 | 51 | 360 | 8.0 | 12.0 | 0.00 | 0.00 | 0.00 | 10 | 1027.4 |
| 20260507105743 | 52 | 315 | 6.0 | 10.0 | 0.00 | 0.00 | 0.00 | 10 | 1027.4 |
| 20260507102744 | 53 | 360 | 4.0 | 8.0 | 0.00 | 0.00 | 0.00 | 10 | 1027.1 |
| 20260507095742 | 53 | 360 | 3.0 | 7.0 | 0.00 | 0.00 | 0.00 | 10 | 1027.4 |
| 20260507082743 | 53 | 360 | 2.0 | 6.0 | 0.00 | 0.00 | 0.00 | 10 | 1027.1 |
| 20260507072746 | 51 | 360 | 3.0 | 5.0 | 0.00 | 0.00 | 0.00 | 10 | 1027.0 |
| 20260507065744 | 51 | 45 | 1.0 | 6.0 | 0.00 | 0.00 | 0.00 | 10 | 1027.0 |
| 20260507062746 | 48 | 45 | 2.0 | 6.0 | 0.00 | 0.00 | 0.00 | 17 | 1026.9 |
| 20260507055743 | 44 | 90 | 1.0 | 6.0 | 0.00 | 0.00 | 0.00 | 55 | 1026.9 |
| 20260507052745 | 43 | 90 | 1.0 | 6.0 | 0.00 | 0.00 | 0.00 | 66 | 1026.8 |
| 20260507045742 | 43 | 90 | 1.0 | 6.0 | 0.00 | 0.00 | 0.00 | 81 | 1026.6 |
| 20260507035743 | 40 | 360 | 3.0 | 6.0 | 0.00 | 0.00 | 0.00 | 99 | 1026.5 |
| 20260507032743 | 40 | 360 | 3.0 | 5.0 | 0.00 | 0.00 | 0.00 | 99 | 1026.3 |
| 20260507022742 | 40 | 45 | 1.0 | 4.0 | 0.00 | 0.00 | 0.00 | 93 | 1026.0 |
| 20260507015744 | 40 | 45 | 0.0 | 3.0 | 0.00 | 0.00 | 0.00 | 92 | 1026.0 |
| 20260507012743 | 41 | 360 | 2.0 | 7.0 | 0.00 | 0.00 | 0.00 | 81 | 1026.0 |
| 20260507005743 | 41 | 45 | 2.0 | 6.0 | 0.00 | 0.00 | 0.00 | 73 | 1026.0 |
| 20260507002743 | 41 | 45 | 2.0 | 9.0 | 0.00 | 0.00 | 0.00 | 66 | 1025.8 |
| 20260506235741 | 41 | 360 | 2.0 | 9.0 | 0.00 | 0.00 | 0.00 | 66 | 1025.9 |